• Join FlightAware (Why Join?)
  • Login
  • US Flag 
04:26PM EST


 

Airport Tracker/Info


-or-


 

Live Flight TrackerFlight Track Log ✈ EJA396 ✈ 28-Apr-2013 ✈ KBOS - KHPN

Flight Track Log - Related Links

Times and Time Zones

All times are in EDT time to prevent confusion due to time zone crossing. See the EJA396 flight status page for this flight to view local times or setup timezone preferences in your user account.

Time Position Orientation Groundspeed Altitude Reporting Facility
EDT Latitude Longitude Course Direction KTS MPH feet Rate Location/Type
02:05PM 42.3667 -70.9833 82° East 155 178 800  Level KA90
02:08PM 42.3883 -70.7789 82° East 255 293 6,800 2,520 Climbing Boston Center
02:09PM 42.3292 -70.7242 146° Southeast 240 276 9,400 2,280 Climbing Boston Center
02:10PM 42.2483 -70.7656 201° Southwest 222 255 11,400 2,100 Climbing Boston Center
02:11PM 42.2022 -70.8931 244° Southwest 277 319 13,700 1,380 Climbing Boston Center
02:12PM 42.1872 -71.0111 260° West 319 367 14,200 900 Climbing Boston Center
02:13PM 42.1639 -71.1600 258° West 364 419 15,600 900 Climbing Boston Center
02:14PM 42.1486 -71.2808 260° West 376 433 16,000 180 Climbing Boston Center
02:15PM 42.1292 -71.4294 260° West 370 426 16,000  Level Boston Center
02:16PM 42.1114 -71.5503 259° West 375 432 16,100  Climbing Boston Center
02:17PM 42.0914 -71.6819 258° West 375 432 16,100  Level Boston Center
02:18PM 42.0736 -71.8219 260° West 359 413 16,100  Level Boston Center
02:19PM 42.0514 -71.9508 257° West 353 406 16,100  Level Boston Center
02:20PM 42.0350 -72.0656 259° West 360 414 16,100  Level Boston Center
02:21PM 42.0147 -72.2081 259° West 352 405 16,100 -60 Level Boston Center
02:22PM 41.9981 -72.3061 257° West 352 405 16,000 -60 Descending Boston Center
02:23PM 41.9753 -72.4625 259° West 358 412 16,000  Level Boston Center
02:24PM 41.9586 -72.5742 259° West 353 406 16,000  Level Boston Center
02:25PM 41.9333 -72.7053 256° West 353 406 16,000  Level Boston Center
02:26PM 41.8808 -72.8333 241° Southwest 353 406 16,000 -480 Level Boston Center
02:27PM 41.8325 -72.9472 240° Southwest 353 406 15,100 -1,380 Descending Boston Center
02:28PM 41.7881 -73.0581 242° Southwest 347 399 13,300 -1,500 Descending Boston Center
02:29PM 41.7478 -73.1553 241° Southwest 347 399 12,100 -660 Descending Boston Center
02:30PM 41.6969 -73.2742 240° Southwest 336 387 12,000 -360 Descending Boston Center
02:31PM 41.6525 -73.3764 240° Southwest 326 375 11,400 -480 Descending Boston Center
02:32PM 41.6100 -73.4756 240° Southwest 314 361 11,100 -240 Descending Boston Center
02:33PM 41.5672 -73.5778 241° Southwest 314 361 11,000 -420 Descending Boston Center
02:33PM 41.5333 -73.6667 243° Southwest 289 333 10,300 -1,440 Descending New York TRACON
02:35PM 41.4833 -73.7500 231° Southwest 270 311 8,200 -2,040 Descending New York TRACON
02:36PM 41.4333 -73.8000 217° Southwest 262 302 6,100 -2,040 Descending New York TRACON
02:37PM 41.3667 -73.8333 201° Southwest 248 285 4,100 -1,140 Descending New York TRACON
02:37PM 41.3167 -73.8667 207° Southwest 210 242 4,000 -660 Descending New York TRACON
02:39PM 41.2500 -73.8500 169° South 240 276 2,800 -480 Descending New York TRACON
02:40PM 41.2000 -73.8167 153° Southeast 176 203 3,000 -180 Climbing New York TRACON
02:41PM 41.1667 -73.7833 143° Southeast 137 158 2,500 -540 Descending New York TRACON
02:42PM 41.1333 -73.7667 159° South 114 131 2,000 -600 Descending New York TRACON
02:43PM 41.1167 -73.7500 143° Southeast 106 122 1,400 -600 Descending New York TRACON
02:44PM 41.0833 -73.7167 143° Southeast 110 127 800 -600 Descending New York TRACON
02:46PM 41.0667 -73.7000 143° Southeast  Level FlightAware Approximate
02:53PM 41.0669 -73.7076 143° Southeast  Level Estimated